sensor_id;sensor_type;location;lat;lon;timestamp;P1;durP1;ratioP1;P2;durP2;ratioP2
76546;SDS011;65390;53.014;8.886;2023-01-29T00:02:07;31.10;;;16.90;;
76546;SDS011;65390;53.014;8.886;2023-01-29T00:04:32;34.67;;;17.92;;
76546;SDS011;65390;53.014;8.886;2023-01-29T00:06:58;40.20;;;19.10;;
76546;SDS011;65390;53.014;8.886;2023-01-29T00:09:23;30.65;;;17.17;;
76546;SDS011;65390;53.014;8.886;2023-01-29T00:11:49;33.92;;;17.65;;
76546;SDS011;65390;53.014;8.886;2023-01-29T00:14:14;32.22;;;17.58;;
76546;SDS011;65390;53.014;8.886;2023-01-29T00:16:39;33.40;;;18.17;;
76546;SDS011;65390;53.014;8.886;2023-01-29T00:19:05;32.47;;;18.33;;
76546;SDS011;65390;53.014;8.886;2023-01-29T00:21:30;33.60;;;18.73;;
76546;SDS011;65390;53.014;8.886;2023-01-29T00:23:56;34.42;;;18.20;;
76546;SDS011;65390;53.014;8.886;2023-01-29T00:26:22;33.67;;;18.90;;
76546;SDS011;65390;53.014;8.886;2023-01-29T00:28:48;33.45;;;19.25;;
76546;SDS011;65390;53.014;8.886;2023-01-29T00:31:20;35.88;;;17.90;;
76546;SDS011;65390;53.014;8.886;2023-01-29T00:33:48;30.67;;;17.15;;
76546;SDS011;65390;53.014;8.886;2023-01-29T00:36:15;33.63;;;19.00;;
76546;SDS011;65390;53.014;8.886;2023-01-29T00:38:42;37.38;;;19.23;;
76546;SDS011;65390;53.014;8.886;2023-01-29T00:41:12;35.65;;;17.98;;
76546;SDS011;65390;53.014;8.886;2023-01-29T00:43:58;30.40;;;17.02;;
76546;SDS011;65390;53.014;8.886;2023-01-29T00:46:43;31.85;;;18.20;;
76546;SDS011;65390;53.014;8.886;2023-01-29T00:49:09;34.60;;;19.48;;
76546;SDS011;65390;53.014;8.886;2023-01-29T00:51:35;35.00;;;19.58;;
76546;SDS011;65390;53.014;8.886;2023-01-29T00:54:01;38.13;;;19.38;;
76546;SDS011;65390;53.014;8.886;2023-01-29T00:56:31;33.72;;;18.75;;
76546;SDS011;65390;53.014;8.886;2023-01-29T00:58:57;34.40;;;19.73;;
76546;SDS011;65390;53.014;8.886;2023-01-29T01:01:23;41.72;;;19.75;;
76546;SDS011;65390;53.014;8.886;2023-01-29T01:04:07;39.00;;;19.13;;
76546;SDS011;65390;53.014;8.886;2023-01-29T01:06:38;37.92;;;19.92;;
76546;SDS011;65390;53.014;8.886;2023-01-29T01:09:06;32.85;;;17.83;;
76546;SDS011;65390;53.014;8.886;2023-01-29T01:11:50;35.70;;;18.98;;
76546;SDS011;65390;53.014;8.886;2023-01-29T01:14:16;36.30;;;19.25;;
76546;SDS011;65390;53.014;8.886;2023-01-29T01:16:45;35.72;;;19.80;;
76546;SDS011;65390;53.014;8.886;2023-01-29T01:19:11;35.22;;;19.67;;
76546;SDS011;65390;53.014;8.886;2023-01-29T01:21:37;38.15;;;18.75;;
76546;SDS011;65390;53.014;8.886;2023-01-29T01:24:03;34.85;;;18.70;;
76546;SDS011;65390;53.014;8.886;2023-01-29T01:26:30;37.08;;;19.65;;
76546;SDS011;65390;53.014;8.886;2023-01-29T01:28:59;38.53;;;20.80;;
76546;SDS011;65390;53.014;8.886;2023-01-29T01:31:24;34.85;;;19.65;;
76546;SDS011;65390;53.014;8.886;2023-01-29T01:33:50;40.60;;;20.08;;
76546;SDS011;65390;53.014;8.886;2023-01-29T01:36:15;35.33;;;19.70;;
76546;SDS011;65390;53.014;8.886;2023-01-29T01:38:42;41.20;;;20.75;;
76546;SDS011;65390;53.014;8.886;2023-01-29T01:41:11;36.03;;;19.67;;
76546;SDS011;65390;53.014;8.886;2023-01-29T01:46:21;32.70;;;18.65;;
76546;SDS011;65390;53.014;8.886;2023-01-29T01:48:53;40.92;;;20.63;;
76546;SDS011;65390;53.014;8.886;2023-01-29T01:51:22;36.83;;;18.60;;
76546;SDS011;65390;53.014;8.886;2023-01-29T01:54:03;38.05;;;19.70;;
76546;SDS011;65390;53.014;8.886;2023-01-29T01:56:32;34.65;;;18.95;;
76546;SDS011;65390;53.014;8.886;2023-01-29T01:59:05;37.22;;;19.10;;
76546;SDS011;65390;53.014;8.886;2023-01-29T02:01:33;36.78;;;18.70;;
76546;SDS011;65390;53.014;8.886;2023-01-29T02:04:06;36.90;;;19.63;;
76546;SDS011;65390;53.014;8.886;2023-01-29T02:06:53;35.83;;;17.92;;
76546;SDS011;65390;53.014;8.886;2023-01-29T02:09:43;34.78;;;18.98;;
76546;SDS011;65390;53.014;8.886;2023-01-29T02:12:16;33.13;;;18.15;;
76546;SDS011;65390;53.014;8.886;2023-01-29T02:14:42;32.00;;;17.45;;
76546;SDS011;65390;53.014;8.886;2023-01-29T02:17:12;34.75;;;18.25;;
76546;SDS011;65390;53.014;8.886;2023-01-29T02:19:47;34.22;;;17.88;;
76546;SDS011;65390;53.014;8.886;2023-01-29T02:22:28;38.33;;;18.92;;
76546;SDS011;65390;53.014;8.886;2023-01-29T02:31:44;37.78;;;18.23;;
76546;SDS011;65390;53.014;8.886;2023-01-29T02:34:23;35.83;;;17.08;;
76546;SDS011;65390;53.014;8.886;2023-01-29T02:36:56;36.65;;;18.67;;
76546;SDS011;65390;53.014;8.886;2023-01-29T02:39:35;32.70;;;18.10;;
76546;SDS011;65390;53.014;8.886;2023-01-29T02:42:14;33.70;;;18.50;;
76546;SDS011;65390;53.014;8.886;2023-01-29T02:44:43;35.33;;;18.55;;
76546;SDS011;65390;53.014;8.886;2023-01-29T02:52:49;35.30;;;18.33;;
76546;SDS011;65390;53.014;8.886;2023-01-29T02:55:23;32.00;;;17.52;;
76546;SDS011;65390;53.014;8.886;2023-01-29T02:57:50;32.40;;;18.33;;
76546;SDS011;65390;53.014;8.886;2023-01-29T03:00:20;34.63;;;18.67;;
76546;SDS011;65390;53.014;8.886;2023-01-29T03:05:19;34.70;;;19.00;;
76546;SDS011;65390;53.014;8.886;2023-01-29T03:07:53;34.05;;;17.65;;
76546;SDS011;65390;53.014;8.886;2023-01-29T03:10:28;34.00;;;19.33;;
76546;SDS011;65390;53.014;8.886;2023-01-29T03:13:01;32.60;;;17.75;;
76546;SDS011;65390;53.014;8.886;2023-01-29T03:15:42;36.53;;;20.20;;
76546;SDS011;65390;53.014;8.886;2023-01-29T03:18:16;36.88;;;19.73;;
76546;SDS011;65390;53.014;8.886;2023-01-29T03:20:53;35.83;;;19.50;;
76546;SDS011;65390;53.014;8.886;2023-01-29T03:23:49;37.53;;;19.38;;
76546;SDS011;65390;53.014;8.886;2023-01-29T03:26:34;37.55;;;19.77;;
76546;SDS011;65390;53.014;8.886;2023-01-29T03:29:19;35.78;;;18.75;;
76546;SDS011;65390;53.014;8.886;2023-01-29T03:32:03;33.70;;;17.70;;
76546;SDS011;65390;53.014;8.886;2023-01-29T03:34:38;35.97;;;17.50;;
76546;SDS011;65390;53.014;8.886;2023-01-29T03:37:09;39.63;;;19.73;;
76546;SDS011;65390;53.014;8.886;2023-01-29T03:39:39;39.80;;;20.58;;
76546;SDS011;65390;53.014;8.886;2023-01-29T03:49:59;38.38;;;20.20;;
76546;SDS011;65390;53.014;8.886;2023-01-29T03:55:21;37.65;;;22.17;;
76546;SDS011;65390;53.014;8.886;2023-01-29T03:58:23;42.58;;;21.33;;
76546;SDS011;65390;53.014;8.886;2023-01-29T04:00:55;40.88;;;21.00;;
76546;SDS011;65390;53.014;8.886;2023-01-29T04:06:35;41.67;;;23.15;;
76546;SDS011;65390;53.014;8.886;2023-01-29T04:09:06;39.53;;;22.23;;
76546;SDS011;65390;53.014;8.886;2023-01-29T04:11:40;42.28;;;21.90;;
76546;SDS011;65390;53.014;8.886;2023-01-29T04:14:09;45.78;;;21.52;;
76546;SDS011;65390;53.014;8.886;2023-01-29T04:16:37;43.88;;;21.90;;
76546;SDS011;65390;53.014;8.886;2023-01-29T04:19:06;43.90;;;22.52;;
76546;SDS011;65390;53.014;8.886;2023-01-29T04:21:32;41.03;;;22.50;;
76546;SDS011;65390;53.014;8.886;2023-01-29T04:24:01;44.33;;;23.77;;
76546;SDS011;65390;53.014;8.886;2023-01-29T04:34:22;39.78;;;22.02;;
76546;SDS011;65390;53.014;8.886;2023-01-29T04:36:55;41.47;;;21.35;;
76546;SDS011;65390;53.014;8.886;2023-01-29T04:45:20;46.72;;;22.08;;
76546;SDS011;65390;53.014;8.886;2023-01-29T04:48:08;43.45;;;23.25;;
76546;SDS011;65390;53.014;8.886;2023-01-29T04:50:46;45.80;;;23.65;;
76546;SDS011;65390;53.014;8.886;2023-01-29T04:53:35;43.47;;;23.90;;
76546;SDS011;65390;53.014;8.886;2023-01-29T04:56:19;42.70;;;25.27;;
76546;SDS011;65390;53.014;8.886;2023-01-29T04:59:11;44.75;;;23.15;;
76546;SDS011;65390;53.014;8.886;2023-01-29T05:01:39;42.95;;;23.40;;
76546;SDS011;65390;53.014;8.886;2023-01-29T05:04:06;42.95;;;21.08;;
76546;SDS011;65390;53.014;8.886;2023-01-29T05:06:37;42.78;;;24.23;;
76546;SDS011;65390;53.014;8.886;2023-01-29T05:09:03;43.65;;;23.98;;
76546;SDS011;65390;53.014;8.886;2023-01-29T05:11:29;45.15;;;24.27;;
76546;SDS011;65390;53.014;8.886;2023-01-29T05:13:57;47.15;;;24.10;;
76546;SDS011;65390;53.014;8.886;2023-01-29T05:16:31;47.35;;;24.05;;
76546;SDS011;65390;53.014;8.886;2023-01-29T05:19:07;47.50;;;22.38;;
76546;SDS011;65390;53.014;8.886;2023-01-29T05:21:35;49.00;;;24.33;;
76546;SDS011;65390;53.014;8.886;2023-01-29T05:24:11;44.17;;;23.55;;
76546;SDS011;65390;53.014;8.886;2023-01-29T05:29:25;44.35;;;24.33;;
76546;SDS011;65390;53.014;8.886;2023-01-29T05:31:51;44.58;;;24.73;;
76546;SDS011;65390;53.014;8.886;2023-01-29T05:34:16;45.50;;;23.42;;
76546;SDS011;65390;53.014;8.886;2023-01-29T05:36:41;45.88;;;24.67;;
76546;SDS011;65390;53.014;8.886;2023-01-29T05:39:07;45.88;;;24.30;;
76546;SDS011;65390;53.014;8.886;2023-01-29T05:41:32;44.08;;;25.38;;
76546;SDS011;65390;53.014;8.886;2023-01-29T05:43:57;54.35;;;27.58;;
76546;SDS011;65390;53.014;8.886;2023-01-29T05:46:23;42.60;;;23.45;;
76546;SDS011;65390;53.014;8.886;2023-01-29T05:48:50;44.53;;;23.45;;
76546;SDS011;65390;53.014;8.886;2023-01-29T05:51:16;47.80;;;26.33;;
76546;SDS011;65390;53.014;8.886;2023-01-29T05:53:44;45.60;;;26.02;;
76546;SDS011;65390;53.014;8.886;2023-01-29T05:56:09;43.22;;;24.15;;
76546;SDS011;65390;53.014;8.886;2023-01-29T05:58:35;46.33;;;25.88;;
76546;SDS011;65390;53.014;8.886;2023-01-29T06:01:10;47.65;;;25.30;;
76546;SDS011;65390;53.014;8.886;2023-01-29T06:03:37;49.17;;;25.20;;
76546;SDS011;65390;53.014;8.886;2023-01-29T06:06:02;54.65;;;26.48;;
76546;SDS011;65390;53.014;8.886;2023-01-29T06:08:28;50.35;;;25.17;;
76546;SDS011;65390;53.014;8.886;2023-01-29T06:10:53;51.08;;;27.45;;
76546;SDS011;65390;53.014;8.886;2023-01-29T06:13:18;53.17;;;26.27;;
76546;SDS011;65390;53.014;8.886;2023-01-29T06:15:44;52.30;;;28.85;;
76546;SDS011;65390;53.014;8.886;2023-01-29T06:18:09;52.88;;;26.83;;
76546;SDS011;65390;53.014;8.886;2023-01-29T06:20:35;52.10;;;28.85;;
76546;SDS011;65390;53.014;8.886;2023-01-29T06:23:01;61.15;;;29.42;;
76546;SDS011;65390;53.014;8.886;2023-01-29T06:25:26;59.70;;;30.92;;
76546;SDS011;65390;53.014;8.886;2023-01-29T06:27:52;60.55;;;30.75;;
76546;SDS011;65390;53.014;8.886;2023-01-29T06:30:17;55.30;;;29.83;;
76546;SDS011;65390;53.014;8.886;2023-01-29T06:32:43;54.00;;;28.15;;
76546;SDS011;65390;53.014;8.886;2023-01-29T06:35:08;60.38;;;33.40;;
76546;SDS011;65390;53.014;8.886;2023-01-29T06:37:34;59.45;;;31.08;;
76546;SDS011;65390;53.014;8.886;2023-01-29T06:40:00;74.13;;;33.25;;
76546;SDS011;65390;53.014;8.886;2023-01-29T06:42:26;66.70;;;32.60;;
76546;SDS011;65390;53.014;8.886;2023-01-29T06:44:53;60.92;;;30.88;;
76546;SDS011;65390;53.014;8.886;2023-01-29T06:49:47;65.30;;;32.80;;
76546;SDS011;65390;53.014;8.886;2023-01-29T06:52:13;64.07;;;31.13;;
76546;SDS011;65390;53.014;8.886;2023-01-29T06:54:41;69.28;;;32.47;;
76546;SDS011;65390;53.014;8.886;2023-01-29T06:57:16;71.22;;;33.67;;
76546;SDS011;65390;53.014;8.886;2023-01-29T06:59:47;67.50;;;34.35;;
76546;SDS011;65390;53.014;8.886;2023-01-29T07:02:13;73.05;;;34.22;;
76546;SDS011;65390;53.014;8.886;2023-01-29T07:04:39;66.10;;;35.40;;
76546;SDS011;65390;53.014;8.886;2023-01-29T07:07:06;68.97;;;34.00;;
76546;SDS011;65390;53.014;8.886;2023-01-29T07:09:37;63.10;;;34.70;;
76546;SDS011;65390;53.014;8.886;2023-01-29T07:12:06;66.05;;;35.05;;
76546;SDS011;65390;53.014;8.886;2023-01-29T07:14:32;72.25;;;36.90;;
76546;SDS011;65390;53.014;8.886;2023-01-29T07:17:00;76.53;;;34.80;;
76546;SDS011;65390;53.014;8.886;2023-01-29T07:19:26;72.50;;;35.35;;
76546;SDS011;65390;53.014;8.886;2023-01-29T07:21:51;74.63;;;38.55;;
76546;SDS011;65390;53.014;8.886;2023-01-29T07:24:33;82.57;;;37.13;;
76546;SDS011;65390;53.014;8.886;2023-01-29T07:27:01;64.97;;;32.42;;
76546;SDS011;65390;53.014;8.886;2023-01-29T07:29:32;70.18;;;35.45;;
76546;SDS011;65390;53.014;8.886;2023-01-29T07:31:57;69.97;;;37.50;;
76546;SDS011;65390;53.014;8.886;2023-01-29T07:34:23;73.80;;;36.15;;
76546;SDS011;65390;53.014;8.886;2023-01-29T07:36:51;69.47;;;35.85;;
76546;SDS011;65390;53.014;8.886;2023-01-29T07:39:20;65.47;;;36.17;;
76546;SDS011;65390;53.014;8.886;2023-01-29T07:41:46;65.95;;;33.65;;
76546;SDS011;65390;53.014;8.886;2023-01-29T07:44:14;72.07;;;35.58;;
76546;SDS011;65390;53.014;8.886;2023-01-29T07:46:42;68.82;;;35.85;;
76546;SDS011;65390;53.014;8.886;2023-01-29T07:49:11;69.68;;;37.92;;
76546;SDS011;65390;53.014;8.886;2023-01-29T07:51:36;76.82;;;36.05;;
76546;SDS011;65390;53.014;8.886;2023-01-29T07:54:01;68.13;;;32.22;;
76546;SDS011;65390;53.014;8.886;2023-01-29T07:56:27;71.43;;;36.33;;
76546;SDS011;65390;53.014;8.886;2023-01-29T07:58:55;68.53;;;36.22;;
76546;SDS011;65390;53.014;8.886;2023-01-29T08:01:20;71.78;;;35.88;;
76546;SDS011;65390;53.014;8.886;2023-01-29T08:03:48;67.43;;;34.83;;
76546;SDS011;65390;53.014;8.886;2023-01-29T08:06:16;68.80;;;34.28;;
76546;SDS011;65390;53.014;8.886;2023-01-29T08:08:43;67.53;;;33.85;;
76546;SDS011;65390;53.014;8.886;2023-01-29T08:11:10;68.20;;;36.75;;
76546;SDS011;65390;53.014;8.886;2023-01-29T08:13:39;66.63;;;33.47;;
76546;SDS011;65390;53.014;8.886;2023-01-29T08:16:05;67.10;;;35.22;;
76546;SDS011;65390;53.014;8.886;2023-01-29T08:18:30;65.93;;;33.15;;
76546;SDS011;65390;53.014;8.886;2023-01-29T08:21:02;68.97;;;33.75;;
76546;SDS011;65390;53.014;8.886;2023-01-29T08:23:28;65.75;;;32.28;;
76546;SDS011;65390;53.014;8.886;2023-01-29T08:25:53;62.53;;;32.83;;
76546;SDS011;65390;53.014;8.886;2023-01-29T08:28:19;63.28;;;29.63;;
76546;SDS011;65390;53.014;8.886;2023-01-29T08:30:44;60.88;;;31.58;;
76546;SDS011;65390;53.014;8.886;2023-01-29T08:33:10;59.47;;;31.92;;
76546;SDS011;65390;53.014;8.886;2023-01-29T08:35:35;63.40;;;32.15;;
76546;SDS011;65390;53.014;8.886;2023-01-29T08:38:05;58.08;;;30.73;;
76546;SDS011;65390;53.014;8.886;2023-01-29T08:40:33;55.65;;;29.08;;
76546;SDS011;65390;53.014;8.886;2023-01-29T08:43:03;54.33;;;29.13;;
76546;SDS011;65390;53.014;8.886;2023-01-29T08:45:34;54.05;;;29.33;;
76546;SDS011;65390;53.014;8.886;2023-01-29T08:48:02;55.95;;;27.48;;
76546;SDS011;65390;53.014;8.886;2023-01-29T08:50:28;50.78;;;26.77;;
76546;SDS011;65390;53.014;8.886;2023-01-29T08:52:58;54.25;;;27.83;;
76546;SDS011;65390;53.014;8.886;2023-01-29T08:55:25;46.95;;;25.35;;
76546;SDS011;65390;53.014;8.886;2023-01-29T08:57:54;48.72;;;26.23;;
76546;SDS011;65390;53.014;8.886;2023-01-29T09:00:21;51.90;;;26.90;;
76546;SDS011;65390;53.014;8.886;2023-01-29T09:02:47;46.30;;;24.08;;
76546;SDS011;65390;53.014;8.886;2023-01-29T09:05:17;47.28;;;26.95;;
76546;SDS011;65390;53.014;8.886;2023-01-29T09:07:43;51.55;;;25.73;;
76546;SDS011;65390;53.014;8.886;2023-01-29T09:10:08;48.25;;;25.05;;
76546;SDS011;65390;53.014;8.886;2023-01-29T09:12:35;49.33;;;27.15;;
76546;SDS011;65390;53.014;8.886;2023-01-29T09:15:06;43.40;;;23.52;;
76546;SDS011;65390;53.014;8.886;2023-01-29T09:17:34;51.38;;;25.60;;
76546;SDS011;65390;53.014;8.886;2023-01-29T09:20:00;53.97;;;26.13;;
76546;SDS011;65390;53.014;8.886;2023-01-29T09:22:25;45.28;;;23.40;;
76546;SDS011;65390;53.014;8.886;2023-01-29T09:24:51;43.55;;;23.67;;
76546;SDS011;65390;53.014;8.886;2023-01-29T09:27:16;45.10;;;24.08;;
76546;SDS011;65390;53.014;8.886;2023-01-29T09:29:41;48.30;;;25.60;;
76546;SDS011;65390;53.014;8.886;2023-01-29T09:32:07;45.08;;;25.25;;
76546;SDS011;65390;53.014;8.886;2023-01-29T09:34:33;46.15;;;25.55;;
76546;SDS011;65390;53.014;8.886;2023-01-29T09:36:58;45.22;;;24.08;;
76546;SDS011;65390;53.014;8.886;2023-01-29T09:39:25;47.83;;;25.85;;
76546;SDS011;65390;53.014;8.886;2023-01-29T09:41:52;47.33;;;25.25;;
76546;SDS011;65390;53.014;8.886;2023-01-29T09:47:04;47.42;;;24.20;;
76546;SDS011;65390;53.014;8.886;2023-01-29T09:49:36;43.97;;;23.73;;
76546;SDS011;65390;53.014;8.886;2023-01-29T09:52:28;46.15;;;23.10;;
76546;SDS011;65390;53.014;8.886;2023-01-29T09:54:56;47.75;;;25.35;;
76546;SDS011;65390;53.014;8.886;2023-01-29T09:57:28;43.42;;;25.15;;
76546;SDS011;65390;53.014;8.886;2023-01-29T09:59:59;46.05;;;24.30;;
76546;SDS011;65390;53.014;8.886;2023-01-29T10:02:32;44.63;;;24.27;;
76546;SDS011;65390;53.014;8.886;2023-01-29T10:05:24;44.03;;;23.13;;
76546;SDS011;65390;53.014;8.886;2023-01-29T10:08:07;41.50;;;23.17;;
76546;SDS011;65390;53.014;8.886;2023-01-29T10:19:48;45.58;;;22.73;;
76546;SDS011;65390;53.014;8.886;2023-01-29T10:22:30;44.28;;;24.67;;
76546;SDS011;65390;53.014;8.886;2023-01-29T10:25:03;40.88;;;23.27;;
76546;SDS011;65390;53.014;8.886;2023-01-29T10:27:35;42.65;;;22.17;;
76546;SDS011;65390;53.014;8.886;2023-01-29T10:32:33;44.65;;;22.20;;
76546;SDS011;65390;53.014;8.886;2023-01-29T10:35:02;41.63;;;22.45;;
76546;SDS011;65390;53.014;8.886;2023-01-29T10:37:39;41.10;;;24.13;;
76546;SDS011;65390;53.014;8.886;2023-01-29T10:40:14;37.08;;;21.15;;
76546;SDS011;65390;53.014;8.886;2023-01-29T10:43:05;38.97;;;22.30;;
76546;SDS011;65390;53.014;8.886;2023-01-29T10:45:49;42.40;;;23.25;;
76546;SDS011;65390;53.014;8.886;2023-01-29T10:48:46;43.60;;;22.50;;
76546;SDS011;65390;53.014;8.886;2023-01-29T10:54:46;41.70;;;22.70;;
76546;SDS011;65390;53.014;8.886;2023-01-29T11:00:37;39.28;;;22.83;;
76546;SDS011;65390;53.014;8.886;2023-01-29T11:03:11;39.70;;;21.35;;
76546;SDS011;65390;53.014;8.886;2023-01-29T11:11:32;39.78;;;22.23;;
76546;SDS011;65390;53.014;8.886;2023-01-29T11:14:05;38.95;;;21.60;;
76546;SDS011;65390;53.014;8.886;2023-01-29T11:16:40;38.75;;;22.10;;
76546;SDS011;65390;53.014;8.886;2023-01-29T11:19:10;33.95;;;20.67;;
76546;SDS011;65390;53.014;8.886;2023-01-29T11:21:52;38.25;;;23.25;;
76546;SDS011;65390;53.014;8.886;2023-01-29T11:24:23;41.33;;;22.63;;
76546;SDS011;65390;53.014;8.886;2023-01-29T11:26:49;40.63;;;21.88;;
76546;SDS011;65390;53.014;8.886;2023-01-29T11:32:23;41.25;;;21.08;;
76546;SDS011;65390;53.014;8.886;2023-01-29T11:37:22;37.45;;;21.27;;
76546;SDS011;65390;53.014;8.886;2023-01-29T11:39:56;37.60;;;22.50;;
76546;SDS011;65390;53.014;8.886;2023-01-29T11:42:21;41.45;;;20.92;;
76546;SDS011;65390;53.014;8.886;2023-01-29T11:44:47;37.65;;;21.60;;
76546;SDS011;65390;53.014;8.886;2023-01-29T11:47:26;39.15;;;22.33;;
76546;SDS011;65390;53.014;8.886;2023-01-29T11:49:54;38.75;;;22.55;;
76546;SDS011;65390;53.014;8.886;2023-01-29T11:52:35;34.47;;;21.52;;
76546;SDS011;65390;53.014;8.886;2023-01-29T11:55:22;39.80;;;20.98;;
76546;SDS011;65390;53.014;8.886;2023-01-29T11:57:51;32.88;;;19.85;;
76546;SDS011;65390;53.014;8.886;2023-01-29T12:00:25;34.15;;;21.30;;
76546;SDS011;65390;53.014;8.886;2023-01-29T12:05:36;38.83;;;22.35;;
76546;SDS011;65390;53.014;8.886;2023-01-29T12:08:12;43.88;;;26.15;;
76546;SDS011;65390;53.014;8.886;2023-01-29T12:10:42;41.92;;;23.48;;
76546;SDS011;65390;53.014;8.886;2023-01-29T12:15:36;40.50;;;24.08;;
76546;SDS011;65390;53.014;8.886;2023-01-29T12:18:13;42.50;;;24.25;;
76546;SDS011;65390;53.014;8.886;2023-01-29T12:20:57;36.30;;;23.25;;
76546;SDS011;65390;53.014;8.886;2023-01-29T12:23:40;41.60;;;24.30;;
76546;SDS011;65390;53.014;8.886;2023-01-29T12:32:08;38.70;;;20.77;;
76546;SDS011;65390;53.014;8.886;2023-01-29T12:35:15;38.67;;;23.23;;
76546;SDS011;65390;53.014;8.886;2023-01-29T12:37:58;40.70;;;24.35;;
76546;SDS011;65390;53.014;8.886;2023-01-29T12:40:30;37.00;;;22.80;;
76546;SDS011;65390;53.014;8.886;2023-01-29T12:43:03;40.28;;;23.48;;
76546;SDS011;65390;53.014;8.886;2023-01-29T12:45:39;37.72;;;22.92;;
76546;SDS011;65390;53.014;8.886;2023-01-29T12:48:11;37.97;;;23.92;;
76546;SDS011;65390;53.014;8.886;2023-01-29T12:50:40;47.35;;;26.85;;
76546;SDS011;65390;53.014;8.886;2023-01-29T12:53:19;40.22;;;26.00;;
76546;SDS011;65390;53.014;8.886;2023-01-29T12:56:10;39.63;;;24.40;;
76546;SDS011;65390;53.014;8.886;2023-01-29T12:58:44;46.65;;;24.80;;
76546;SDS011;65390;53.014;8.886;2023-01-29T13:01:32;46.33;;;27.63;;
76546;SDS011;65390;53.014;8.886;2023-01-29T13:06:53;41.83;;;26.45;;
76546;SDS011;65390;53.014;8.886;2023-01-29T13:09:31;42.10;;;25.58;;
76546;SDS011;65390;53.014;8.886;2023-01-29T13:12:02;40.22;;;25.23;;
76546;SDS011;65390;53.014;8.886;2023-01-29T13:14:39;50.45;;;28.08;;
76546;SDS011;65390;53.014;8.886;2023-01-29T13:17:53;44.38;;;25.55;;
76546;SDS011;65390;53.014;8.886;2023-01-29T13:20:18;42.22;;;25.35;;
76546;SDS011;65390;53.014;8.886;2023-01-29T13:22:51;43.65;;;26.45;;
76546;SDS011;65390;53.014;8.886;2023-01-29T13:25:19;38.78;;;24.40;;
76546;SDS011;65390;53.014;8.886;2023-01-29T13:27:45;47.60;;;25.13;;
76546;SDS011;65390;53.014;8.886;2023-01-29T13:30:30;48.92;;;24.90;;
76546;SDS011;65390;53.014;8.886;2023-01-29T13:32:59;40.35;;;25.60;;
76546;SDS011;65390;53.014;8.886;2023-01-29T13:35:36;46.70;;;27.30;;
76546;SDS011;65390;53.014;8.886;2023-01-29T13:38:19;39.17;;;24.55;;
76546;SDS011;65390;53.014;8.886;2023-01-29T13:40:49;43.00;;;24.23;;
76546;SDS011;65390;53.014;8.886;2023-01-29T13:43:19;42.47;;;24.48;;
76546;SDS011;65390;53.014;8.886;2023-01-29T13:45:46;48.20;;;25.70;;
76546;SDS011;65390;53.014;8.886;2023-01-29T13:48:28;50.57;;;27.77;;
76546;SDS011;65390;53.014;8.886;2023-01-29T13:51:01;44.13;;;25.58;;
76546;SDS011;65390;53.014;8.886;2023-01-29T13:53:37;41.28;;;24.17;;
76546;SDS011;65390;53.014;8.886;2023-01-29T13:58:53;42.90;;;25.55;;
76546;SDS011;65390;53.014;8.886;2023-01-29T14:04:22;42.55;;;24.85;;
76546;SDS011;65390;53.014;8.886;2023-01-29T14:06:54;43.38;;;25.42;;
76546;SDS011;65390;53.014;8.886;2023-01-29T14:12:02;44.53;;;27.08;;
76546;SDS011;65390;53.014;8.886;2023-01-29T14:17:23;53.75;;;27.70;;
76546;SDS011;65390;53.014;8.886;2023-01-29T14:19:51;41.88;;;25.25;;
76546;SDS011;65390;53.014;8.886;2023-01-29T14:22:30;43.70;;;26.83;;
76546;SDS011;65390;53.014;8.886;2023-01-29T14:25:03;48.78;;;26.48;;
76546;SDS011;65390;53.014;8.886;2023-01-29T14:27:30;46.22;;;27.42;;
76546;SDS011;65390;53.014;8.886;2023-01-29T14:30:00;49.42;;;25.48;;
76546;SDS011;65390;53.014;8.886;2023-01-29T14:32:30;50.50;;;29.10;;
76546;SDS011;65390;53.014;8.886;2023-01-29T14:34:58;49.53;;;27.65;;
76546;SDS011;65390;53.014;8.886;2023-01-29T14:45:35;50.10;;;27.05;;
76546;SDS011;65390;53.014;8.886;2023-01-29T14:56:14;52.83;;;28.63;;
76546;SDS011;65390;53.014;8.886;2023-01-29T15:01:47;56.33;;;31.15;;
76546;SDS011;65390;53.014;8.886;2023-01-29T15:09:41;51.65;;;31.25;;
76546;SDS011;65390;53.014;8.886;2023-01-29T15:12:30;56.47;;;32.75;;
76546;SDS011;65390;53.014;8.886;2023-01-29T15:18:12;57.88;;;33.90;;
76546;SDS011;65390;53.014;8.886;2023-01-29T15:20:41;57.83;;;34.25;;
76546;SDS011;65390;53.014;8.886;2023-01-29T15:23:43;77.70;;;42.25;;
76546;SDS011;65390;53.014;8.886;2023-01-29T15:26:02;65.43;;;35.03;;
76546;SDS011;65390;53.014;8.886;2023-01-29T15:28:30;62.47;;;36.85;;
76546;SDS011;65390;53.014;8.886;2023-01-29T15:30:58;65.07;;;36.00;;
76546;SDS011;65390;53.014;8.886;2023-01-29T15:33:28;62.33;;;32.72;;
76546;SDS011;65390;53.014;8.886;2023-01-29T15:35:59;61.10;;;35.00;;
76546;SDS011;65390;53.014;8.886;2023-01-29T15:38:28;61.03;;;34.97;;
76546;SDS011;65390;53.014;8.886;2023-01-29T15:43:44;67.60;;;39.50;;
76546;SDS011;65390;53.014;8.886;2023-01-29T15:46:14;72.32;;;38.85;;
76546;SDS011;65390;53.014;8.886;2023-01-29T15:48:46;67.22;;;39.20;;
76546;SDS011;65390;53.014;8.886;2023-01-29T15:51:18;88.18;;;51.20;;
76546;SDS011;65390;53.014;8.886;2023-01-29T15:56:28;76.22;;;44.13;;
76546;SDS011;65390;53.014;8.886;2023-01-29T15:58:57;84.68;;;48.80;;
76546;SDS011;65390;53.014;8.886;2023-01-29T16:01:28;73.80;;;40.15;;
76546;SDS011;65390;53.014;8.886;2023-01-29T16:03:58;70.28;;;41.88;;
76546;SDS011;65390;53.014;8.886;2023-01-29T16:06:40;72.60;;;41.70;;
76546;SDS011;65390;53.014;8.886;2023-01-29T16:09:14;65.82;;;37.60;;
76546;SDS011;65390;53.014;8.886;2023-01-29T16:11:49;71.68;;;39.88;;
76546;SDS011;65390;53.014;8.886;2023-01-29T16:14:18;68.20;;;37.95;;
76546;SDS011;65390;53.014;8.886;2023-01-29T16:16:53;76.07;;;42.33;;
76546;SDS011;65390;53.014;8.886;2023-01-29T16:19:20;75.35;;;41.40;;
76546;SDS011;65390;53.014;8.886;2023-01-29T16:22:00;72.00;;;41.00;;
76546;SDS011;65390;53.014;8.886;2023-01-29T16:24:28;76.97;;;41.65;;
76546;SDS011;65390;53.014;8.886;2023-01-29T16:27:06;79.03;;;42.35;;
76546;SDS011;65390;53.014;8.886;2023-01-29T16:29:43;82.15;;;43.80;;
76546;SDS011;65390;53.014;8.886;2023-01-29T16:32:12;81.78;;;42.63;;
76546;SDS011;65390;53.014;8.886;2023-01-29T16:34:41;79.17;;;43.27;;
76546;SDS011;65390;53.014;8.886;2023-01-29T16:39:52;84.30;;;43.00;;
76546;SDS011;65390;53.014;8.886;2023-01-29T16:44:50;80.65;;;41.15;;
76546;SDS011;65390;53.014;8.886;2023-01-29T16:47:21;80.28;;;40.97;;
76546;SDS011;65390;53.014;8.886;2023-01-29T16:50:39;75.10;;;39.85;;
76546;SDS011;65390;53.014;8.886;2023-01-29T16:52:55;79.97;;;43.23;;
76546;SDS011;65390;53.014;8.886;2023-01-29T16:55:24;83.93;;;43.72;;
76546;SDS011;65390;53.014;8.886;2023-01-29T16:57:56;88.07;;;44.70;;
76546;SDS011;65390;53.014;8.886;2023-01-29T17:00:26;83.32;;;44.42;;
76546;SDS011;65390;53.014;8.886;2023-01-29T17:02:53;93.55;;;48.03;;
76546;SDS011;65390;53.014;8.886;2023-01-29T17:05:27;82.00;;;42.70;;
76546;SDS011;65390;53.014;8.886;2023-01-29T17:07:55;83.50;;;45.90;;
76546;SDS011;65390;53.014;8.886;2023-01-29T17:10:22;89.35;;;47.17;;
76546;SDS011;65390;53.014;8.886;2023-01-29T17:12:53;89.05;;;46.17;;